Time;durP1;ratioP1;P1;durP2;ratioP2;P2;SDS_P1;SDS_P2;PMS_P1;PMS_P2;Temp;Humidity;BMP_temperature;BMP_pressure;BME280_temperature;BME280_humidity;BME280_pressure;Samples;Min_cycle;Max_cycle;Signal;HPM_P1;HPM_P2
2022/03/11 00:02:15;;;;;;;0.40;0.40;;;;;;;25.19;12.06;102050.16;5055057;28;20096;-70
2022/03/11 00:04:41;;;;;;;0.30;0.30;;;;;;;25.27;11.90;102067.03;5055591;28;20044;-69
2022/03/11 00:07:07;;;;;;;0.30;0.30;;;;;;;25.27;11.84;102061.56;5055614;28;20025;-70
2022/03/11 00:09:33;;;;;;;0.52;0.52;;;;;;;25.25;12.20;102055.50;5054908;28;20483;-70
2022/03/11 00:11:58;;;;;;;0.40;0.40;;;;;;;25.27;11.91;102058.00;5055571;28;20021;-70
2022/03/11 00:14:26;;;;;;;0.40;0.40;;;;;;;25.26;12.19;102056.31;5055349;28;20025;-70
2022/03/11 00:16:52;;;;;;;0.40;0.40;;;;;;;25.27;12.05;102044.31;5055419;28;20025;-70
2022/03/11 00:19:17;;;;;;;0.30;0.30;;;;;;;25.27;11.90;102039.66;5056022;28;20036;-69
2022/03/11 00:21:42;;;;;;;0.30;0.30;;;;;;;25.26;12.20;102035.25;5055322;28;20090;-70
2022/03/11 00:24:08;;;;;;;0.45;0.45;;;;;;;25.26;12.00;102031.69;5054900;28;20048;-70
2022/03/11 00:26:34;;;;;;;0.30;0.30;;;;;;;25.28;12.18;102033.13;5055200;28;20055;-70
2022/03/11 00:29:00;;;;;;;0.60;0.50;;;;;;;25.25;12.13;102030.88;5055231;28;20028;-70
2022/03/11 00:31:25;;;;;;;0.47;0.47;;;;;;;25.25;12.11;102036.34;5054750;28;20107;-70
2022/03/11 00:33:51;;;;;;;0.40;0.40;;;;;;;25.26;12.11;102034.44;5054910;28;20435;-73
2022/03/11 00:36:16;;;;;;;0.30;0.30;;;;;;;25.25;12.29;102028.13;5055470;28;20384;-73
2022/03/11 00:38:42;;;;;;;0.50;0.43;;;;;;;25.25;12.06;102022.66;5055208;28;20025;-72
2022/03/11 00:41:07;;;;;;;0.30;0.30;;;;;;;25.27;12.25;102031.44;5056214;28;20143;-73
2022/03/11 00:43:33;;;;;;;0.50;0.50;;;;;;;25.26;12.14;102029.78;5055756;28;20529;-72
2022/03/11 00:45:59;;;;;;;0.32;0.32;;;;;;;25.27;12.44;102025.97;5037756;28;20525;-72
2022/03/11 00:48:24;;;;;;;0.47;0.47;;;;;;;25.28;12.42;102019.44;5054827;28;20032;-72
2022/03/11 00:50:50;;;;;;;0.47;0.47;;;;;;;25.26;12.27;102007.06;5055434;28;20041;-72
2022/03/11 00:53:15;;;;;;;0.40;0.40;;;;;;;25.25;12.07;102006.25;5055355;28;20071;-72
2022/03/11 00:55:40;;;;;;;0.30;0.30;;;;;;;25.26;12.14;102005.16;5055372;28;20107;-72
2022/03/11 00:58:06;;;;;;;0.50;0.50;;;;;;;25.26;12.20;102001.59;5054713;28;20476;-71
2022/03/11 01:00:32;;;;;;;0.40;0.40;;;;;;;25.24;12.26;102004.53;5054557;28;20028;-72
2022/03/11 01:02:57;;;;;;;0.25;0.25;;;;;;;25.24;12.56;102004.53;5054703;28;20033;-73
2022/03/11 01:05:22;;;;;;;0.30;0.30;;;;;;;25.25;12.23;102003.50;5054494;28;20032;-73
2022/03/11 01:07:48;;;;;;;0.45;0.45;;;;;;;25.26;12.55;102001.59;5054624;28;20021;-72
2022/03/11 01:10:14;;;;;;;0.40;0.40;;;;;;;25.24;12.39;102001.81;5054936;28;20016;-72
2022/03/11 01:12:39;;;;;;;0.38;0.38;;;;;;;25.24;12.53;101985.41;5054456;28;20090;-71
2022/03/11 01:15:06;;;;;;;0.40;0.40;;;;;;;25.23;12.66;101981.03;5053762;28;20025;-70
2022/03/11 01:17:31;;;;;;;0.38;0.38;;;;;;;25.22;12.43;101979.34;5054275;28;20025;-70
2022/03/11 01:19:57;;;;;;;0.38;0.38;;;;;;;25.23;12.40;101970.06;5054409;28;20036;-70
2022/03/11 01:22:22;;;;;;;0.40;0.40;;;;;;;25.23;12.66;101964.59;5054167;28;20033;-70
2022/03/11 01:24:47;;;;;;;0.35;0.35;;;;;;;25.24;12.46;101962.69;5053606;28;20048;-69
2022/03/11 01:27:13;;;;;;;0.20;0.20;;;;;;;25.23;12.77;101956.41;5054434;28;20037;-70
2022/03/11 01:29:38;;;;;;;0.30;0.30;;;;;;;25.18;12.67;101944.50;5054440;28;20025;-70
2022/03/11 01:32:04;;;;;;;0.40;0.40;;;;;;;25.18;12.76;101941.78;5054026;28;20485;-70
2022/03/11 01:34:30;;;;;;;0.38;0.38;;;;;;;25.21;12.45;101955.78;5036550;28;20360;-69
2022/03/11 01:36:55;;;;;;;0.63;0.60;;;;;;;25.22;12.65;101951.16;5054061;28;20041;-70
2022/03/11 01:39:20;;;;;;;0.40;0.30;;;;;;;25.20;12.73;101950.56;5053907;28;20055;-69
2022/03/11 01:41:46;;;;;;;0.40;0.40;;;;;;;25.22;12.62;101946.50;5054339;28;20021;-70
2022/03/11 01:44:11;;;;;;;0.57;0.47;;;;;;;25.23;12.70;101950.91;5054247;28;20040;-70
2022/03/11 01:46:38;;;;;;;0.60;0.40;;;;;;;25.22;12.90;101952.00;5054494;28;20436;-70
2022/03/11 01:49:05;;;;;;;0.35;0.35;;;;;;;25.21;12.95;101946.75;5053811;28;20069;-70
2022/03/11 01:51:33;;;;;;;0.30;0.30;;;;;;;25.21;12.82;101955.78;5054306;28;20039;-69
2022/03/11 01:53:58;;;;;;;0.38;0.38;;;;;;;25.22;12.80;101945.69;5054091;28;20495;-71
2022/03/11 01:56:25;;;;;;;0.40;0.40;;;;;;;25.11;12.84;101928.25;5054273;28;20021;-69
2022/03/11 01:58:55;;;;;;;0.40;0.40;;;;;;;25.22;12.82;101943.78;5054412;28;20032;-70
2022/03/11 02:01:23;;;;;;;0.50;0.50;;;;;;;25.21;12.96;101938.56;5053780;28;20104;-70
2022/03/11 02:03:49;;;;;;;0.40;0.40;;;;;;;25.22;12.86;101930.09;5054584;28;20127;-70
2022/03/11 02:06:14;;;;;;;0.30;0.30;;;;;;;25.22;13.07;101930.09;5036248;28;20451;-70
2022/03/11 02:08:40;;;;;;;0.22;0.22;;;;;;;25.20;13.08;101924.06;5036065;28;20111;-70
2022/03/11 02:11:07;;;;;;;0.40;0.40;;;;;;;25.21;12.95;101927.63;5060423;28;20025;-70
2022/03/11 02:13:46;;;;;;;0.30;0.30;;;;;;;25.19;12.77;101913.34;5063078;28;20475;-70
2022/03/11 02:16:13;;;;;;;0.40;0.40;;;;;;;25.06;12.99;101903.56;5061560;28;20021;-70
2022/03/11 02:18:40;;;;;;;0.30;0.30;;;;;;;25.21;12.97;101924.88;5062172;28;20041;-70
2022/03/11 02:21:06;;;;;;;0.30;0.30;;;;;;;25.20;12.98;101926.78;5060661;28;20049;-70
2022/03/11 02:23:45;;;;;;;0.38;0.38;;;;;;;25.21;12.88;101931.16;5064856;28;20388;-70
2022/03/11 02:26:11;;;;;;;0.40;0.30;;;;;;;25.21;12.92;101933.09;5067331;28;20029;-70
2022/03/11 02:28:36;;;;;;;0.40;0.40;;;;;;;25.10;12.88;101927.44;5064462;28;20017;-70
2022/03/11 02:31:02;;;;;;;0.38;0.38;;;;;;;25.20;13.06;101926.78;5063700;28;20029;-70
2022/03/11 02:33:27;;;;;;;0.40;0.40;;;;;;;25.18;12.95;101926.22;5063587;28;20117;-70
2022/03/11 02:35:53;;;;;;;0.40;0.40;;;;;;;25.20;13.18;101925.94;5065759;28;20032;-70
2022/03/11 02:38:19;;;;;;;0.40;0.40;;;;;;;25.20;13.02;101926.78;5061984;28;20029;-70
2022/03/11 02:40:45;;;;;;;0.30;0.30;;;;;;;25.20;12.96;101921.31;5058546;28;20524;-70
2022/03/11 02:43:10;;;;;;;0.40;0.40;;;;;;;25.19;13.05;101919.66;5058674;28;20033;-70
2022/03/11 02:45:35;;;;;;;0.60;0.50;;;;;;;25.22;12.99;101923.81;5057510;28;20022;-70
2022/03/11 02:48:01;;;;;;;0.40;0.40;;;;;;;25.16;13.02;101908.38;5056872;28;20033;-70
2022/03/11 02:50:26;;;;;;;0.40;0.40;;;;;;;25.22;13.30;101910.94;5057016;28;20413;-70
2022/03/11 02:52:51;;;;;;;0.40;0.40;;;;;;;25.21;13.11;101903.00;5056813;28;20028;-69
2022/03/11 02:55:17;;;;;;;0.40;0.40;;;;;;;25.20;13.06;101895.84;5040232;28;20025;-70
2022/03/11 02:57:42;;;;;;;0.30;0.30;;;;;;;25.21;13.20;101892.88;5061665;28;20049;-69
2022/03/11 03:00:08;;;;;;;0.40;0.40;;;;;;;25.22;13.34;101900.00;5058378;28;20036;-70
2022/03/11 03:02:34;;;;;;;0.30;0.30;;;;;;;25.20;13.43;101906.78;5057316;28;20370;-70
2022/03/11 03:05:01;;;;;;;0.30;0.30;;;;;;;25.21;13.29;101916.66;5057111;28;20036;-70
2022/03/11 03:07:27;;;;;;;0.38;0.38;;;;;;;25.19;13.35;101919.66;5056606;28;20057;-70
2022/03/11 03:09:52;;;;;;;0.30;0.30;;;;;;;25.20;13.09;101904.91;5056435;28;20032;-70
2022/03/11 03:12:17;;;;;;;0.30;0.30;;;;;;;25.20;13.48;101904.06;5056281;28;20031;-70
2022/03/11 03:14:43;;;;;;;0.32;0.32;;;;;;;25.20;13.27;101909.53;5056548;28;20029;-70
2022/03/11 03:17:08;;;;;;;0.38;0.38;;;;;;;25.21;13.28;101906.53;5056578;28;20426;-70
2022/03/11 03:19:35;;;;;;;0.30;0.30;;;;;;;25.19;13.36;101908.72;5056600;28;20468;-70
2022/03/11 03:22:01;;;;;;;0.40;0.40;;;;;;;25.20;13.18;101893.09;5056241;28;20100;-70
2022/03/11 03:24:27;;;;;;;0.30;0.30;;;;;;;25.17;13.24;101890.91;5056240;28;20507;-70
2022/03/11 03:26:54;;;;;;;0.30;0.30;;;;;;;25.14;13.61;101892.22;5056532;28;20032;-70
2022/03/11 03:29:20;;;;;;;0.50;0.50;;;;;;;25.15;13.29;101891.16;5057354;28;20514;-71
2022/03/11 03:31:45;;;;;;;0.45;0.45;;;;;;;25.19;13.31;101888.72;5038334;28;20032;-70
2022/03/11 03:34:11;;;;;;;0.47;0.40;;;;;;;25.18;13.30;101876.97;5056296;28;20037;-70
2022/03/11 03:36:36;;;;;;;0.20;0.20;;;;;;;25.21;13.50;101890.13;5055528;28;20021;-70
2022/03/11 03:39:01;;;;;;;0.40;0.40;;;;;;;25.21;13.22;101887.41;5055979;28;20025;-70
2022/03/11 03:41:27;;;;;;;0.25;0.25;;;;;;;25.19;13.23;101886.81;5056275;28;20025;-70
2022/03/11 03:43:52;;;;;;;0.30;0.30;;;;;;;25.10;13.29;101874.66;5055783;28;20430;-70
2022/03/11 03:46:18;;;;;;;0.30;0.30;;;;;;;25.14;13.56;101881.28;5055464;28;20083;-69
2022/03/11 03:48:43;;;;;;;0.43;0.35;;;;;;;25.18;13.53;101885.19;5055852;28;20021;-70
2022/03/11 03:51:08;;;;;;;0.40;0.35;;;;;;;25.18;13.36;101887.91;5055945;28;20086;-70
2022/03/11 03:53:34;;;;;;;0.30;0.30;;;;;;;25.18;13.58;101882.44;5055758;28;20021;-70
2022/03/11 03:55:59;;;;;;;0.30;0.30;;;;;;;25.19;13.47;101881.34;5055433;28;20104;-70
2022/03/11 03:58:25;;;;;;;0.40;0.40;;;;;;;25.17;13.35;101872.56;5055249;28;20075;-70
2022/03/11 04:00:50;;;;;;;0.30;0.30;;;;;;;25.16;13.31;101865.44;5055205;28;20029;-70
2022/03/11 04:03:16;;;;;;;0.30;0.30;;;;;;;25.18;13.73;101863.28;5055161;28;20108;-70
2022/03/11 04:05:41;;;;;;;0.30;0.30;;;;;;;25.20;13.49;101872.06;5055025;28;20501;-70
2022/03/11 04:08:06;;;;;;;0.32;0.32;;;;;;;25.20;13.33;101873.97;5055145;28;20035;-70
2022/03/11 04:10:32;;;;;;;0.40;0.40;;;;;;;25.19;13.64;101875.88;5055546;28;20021;-70
2022/03/11 04:12:57;;;;;;;0.43;0.43;;;;;;;25.19;13.70;101875.88;5055471;28;20024;-69
2022/03/11 04:15:23;;;;;;;0.60;0.55;;;;;;;25.16;13.60;101870.91;5055289;28;20025;-69
2022/03/11 04:17:48;;;;;;;0.40;0.40;;;;;;;25.18;13.49;101881.59;5055657;28;20471;-69
2022/03/11 04:20:14;;;;;;;1.23;0.25;;;;;;;25.15;13.44;101861.06;5055575;28;20032;-69
2022/03/11 04:22:41;;;;;;;0.38;0.38;;;;;;;25.17;13.61;101872.56;5055360;28;20570;-71
2022/03/11 04:25:08;;;;;;;0.30;0.30;;;;;;;25.18;13.58;101871.50;5055793;28;20044;-69
2022/03/11 04:27:33;;;;;;;0.32;0.32;;;;;;;25.16;13.61;101859.13;5055692;28;20036;-69
2022/03/11 04:29:58;;;;;;;0.55;0.38;;;;;;;25.20;13.55;101865.75;5055147;28;20472;-70
2022/03/11 04:32:24;;;;;;;0.40;0.40;;;;;;;25.20;13.79;101865.75;5055371;28;20021;-69
2022/03/11 04:34:49;;;;;;;0.40;0.40;;;;;;;25.22;13.83;101869.09;5055076;28;20021;-70
2022/03/11 04:37:15;;;;;;;0.40;0.40;;;;;;;25.23;13.68;101871.59;5055045;28;20066;-70
2022/03/11 04:39:40;;;;;;;0.55;0.40;;;;;;;25.20;13.56;101877.53;5054641;28;20439;-70
2022/03/11 04:42:09;;;;;;;0.30;0.30;;;;;;;25.22;13.82;101864.44;5055072;28;20029;-70
2022/03/11 04:44:34;;;;;;;0.30;0.30;;;;;;;25.25;13.85;101869.44;5055635;28;20032;-70
2022/03/11 04:47:00;;;;;;;0.30;0.30;;;;;;;25.19;13.55;101864.94;5055000;28;20452;-70
2022/03/11 04:49:25;;;;;;;0.30;0.30;;;;;;;25.23;13.83;101860.63;5055203;28;20037;-73
2022/03/11 04:51:51;;;;;;;0.30;0.30;;;;;;;25.22;13.87;101869.91;5055208;28;20033;-72
2022/03/11 04:54:16;;;;;;;0.50;0.50;;;;;;;25.24;13.57;101862.28;5056258;28;20032;-73
2022/03/11 04:56:41;;;;;;;0.35;0.35;;;;;;;25.23;13.78;101860.63;5055931;28;20087;-73
2022/03/11 04:59:07;;;;;;;0.30;0.30;;;;;;;25.24;13.61;101859.53;5055436;28;20021;-73
2022/03/11 05:01:32;;;;;;;0.28;0.28;;;;;;;25.23;13.51;101849.69;5056095;28;20024;-73
2022/03/11 05:03:57;;;;;;;0.38;0.38;;;;;;;25.26;13.63;101856.59;5055226;28;20356;-72
2022/03/11 05:06:23;;;;;;;0.50;0.50;;;;;;;25.25;13.63;101852.16;5055188;28;20411;-73
2022/03/11 05:08:48;;;;;;;0.40;0.40;;;;;;;25.25;13.61;101847.56;5056133;28;20432;-72
2022/03/11 05:11:17;;;;;;;0.40;0.40;;;;;;;25.27;13.56;101848.13;5054518;28;20329;-72
2022/03/11 05:13:42;;;;;;;0.30;0.30;;;;;;;25.27;13.75;101850.06;5053949;28;20029;-73
2022/03/11 05:16:08;;;;;;;0.40;0.40;;;;;;;25.29;13.59;101856.09;5053389;28;20375;-73
2022/03/11 05:18:34;;;;;;;0.30;0.30;;;;;;;25.27;13.88;101850.88;5053898;28;20025;-73
2022/03/11 05:20:59;;;;;;;0.50;0.40;;;;;;;25.16;13.68;101827.13;5053405;28;20021;-72
2022/03/11 05:23:24;;;;;;;0.65;0.40;;;;;;;25.28;14.00;101844.34;5053624;28;20118;-72
2022/03/11 05:25:50;;;;;;;0.73;0.35;;;;;;;25.24;13.87;101836.84;5054135;28;20071;-72
2022/03/11 05:28:16;;;;;;;1.00;0.50;;;;;;;25.30;14.21;101833.97;5053947;28;20029;-72
2022/03/11 05:30:41;;;;;;;0.60;0.40;;;;;;;25.33;14.07;101831.78;5036620;28;20478;-72
2022/03/11 05:33:07;;;;;;;0.30;0.30;;;;;;;25.32;14.03;101816.44;5036160;28;20021;-71
2022/03/11 05:35:33;;;;;;;0.30;0.30;;;;;;;25.35;13.85;101818.69;5054245;28;20070;-72
2022/03/11 05:37:58;;;;;;;0.43;0.43;;;;;;;25.36;13.65;101810.22;5053521;28;20324;-72
2022/03/11 05:40:24;;;;;;;0.40;0.40;;;;;;;25.30;14.11;101823.00;5053284;28;20357;-72
2022/03/11 05:42:49;;;;;;;0.40;0.40;;;;;;;25.38;14.15;101818.19;5052897;28;20032;-72
2022/03/11 05:45:15;;;;;;;1.55;0.30;;;;;;;25.37;13.94;101822.84;5052761;28;20025;-73
2022/03/11 05:47:40;;;;;;;0.50;0.50;;;;;;;25.42;13.84;101811.13;5053158;28;20104;-72
2022/03/11 05:50:06;;;;;;;0.40;0.40;;;;;;;25.41;13.90;101825.91;5053370;28;20432;-69
2022/03/11 05:52:34;;;;;;;33.35;15.90;;;;;;;25.41;13.73;101823.16;5052953;28;20061;-69
2022/03/11 05:55:00;;;;;;;33.15;13.63;;;;;;;25.38;13.83;101829.13;5034763;28;20040;-69
2022/03/11 05:57:25;;;;;;;19.13;7.90;;;;;;;25.44;13.84;101833.56;5052764;28;20025;-69
2022/03/11 05:59:51;;;;;;;7.45;3.80;;;;;;;25.44;13.90;101825.38;5053120;28;20029;-69
2022/03/11 06:02:16;;;;;;;7.97;3.40;;;;;;;25.46;13.75;101832.25;5056780;28;20025;-69
2022/03/11 06:04:41;;;;;;;4.22;2.28;;;;;;;25.42;14.04;101824.78;5056937;28;20438;-69
2022/03/11 06:07:07;;;;;;;4.13;2.50;;;;;;;25.45;14.13;101832.50;5056913;28;20088;-69
2022/03/11 06:09:32;;;;;;;4.10;2.00;;;;;;;25.47;14.04;101822.97;5056424;28;20031;-69
2022/03/11 06:11:58;;;;;;;16.00;5.85;;;;;;;25.50;14.14;101827.09;5056409;28;20128;-69
2022/03/11 06:14:23;;;;;;;29.15;10.90;;;;;;;25.49;14.16;101819.97;5057232;28;20344;-69
2022/03/11 06:16:49;;;;;;;67.32;25.17;;;;;;;25.45;14.44;101825.13;5056477;28;20409;-69
2022/03/11 06:19:14;;;;;;;36.88;14.20;;;;;;;25.50;14.30;101827.09;5057081;28;20024;-69
2022/03/11 06:21:39;;;;;;;20.50;6.80;;;;;;;25.53;15.11;101828.53;5057230;28;20513;-70
2022/03/11 06:24:05;;;;;;;13.18;5.70;;;;;;;25.44;14.40;101828.09;5056006;28;20484;-69
2022/03/11 06:26:31;;;;;;;9.20;3.17;;;;;;;25.55;14.57;101829.91;5057022;28;20027;-67
2022/03/11 06:28:56;;;;;;;5.57;2.25;;;;;;;25.57;14.55;101837.88;5056584;28;20032;-70
2022/03/11 06:31:21;;;;;;;3.15;1.60;;;;;;;25.57;13.93;101833.22;5056326;28;20432;-70
2022/03/11 06:33:47;;;;;;;5.15;2.00;;;;;;;25.57;14.48;101827.75;5056207;28;20075;-70
2022/03/11 06:36:12;;;;;;;3.40;1.40;;;;;;;25.47;14.25;101822.13;5056815;28;20071;-70
2022/03/11 06:38:38;;;;;;;2.05;1.13;;;;;;;25.54;14.38;101820.03;5055907;28;20379;-69
2022/03/11 06:41:03;;;;;;;2.40;1.13;;;;;;;25.59;14.32;101824.75;5056238;28;20029;-70
2022/03/11 06:43:28;;;;;;;2.40;1.00;;;;;;;25.61;14.28;101828.91;5055968;28;20075;-70
2022/03/11 06:45:54;;;;;;;1.40;0.90;;;;;;;25.63;14.37;101829.47;5055991;28;20028;-69
2022/03/11 06:48:21;;;;;;;1.00;0.80;;;;;;;25.63;14.40;101824.00;5056159;28;20032;-74
2022/03/11 06:50:47;;;;;;;1.17;0.55;;;;;;;25.64;14.05;101827.56;5056235;28;20029;-74
2022/03/11 06:53:12;;;;;;;3.10;1.00;;;;;;;25.65;14.06;101824.56;5056373;28;20048;-75
2022/03/11 06:55:38;;;;;;;1.58;0.90;;;;;;;25.68;14.25;101825.97;5058041;28;20036;-74
2022/03/11 06:58:03;;;;;;;2.22;1.40;;;;;;;25.66;13.81;101823.50;5055572;28;20021;-74
2022/03/11 07:00:29;;;;;;;3.42;1.52;;;;;;;25.64;13.98;101817.44;5055800;28;20039;-74
2022/03/11 07:02:54;;;;;;;1.48;1.02;;;;;;;25.75;13.98;101828.50;5056299;28;20041;-74
2022/03/11 07:05:19;;;;;;;2.00;1.00;;;;;;;25.72;14.03;101840.81;5056892;28;20036;-73
2022/03/11 07:07:46;;;;;;;1.17;0.80;;;;;;;25.70;14.19;101842.97;5057127;28;20480;-74
2022/03/11 07:10:11;;;;;;;1.15;0.73;;;;;;;25.68;14.17;101835.03;5056736;28;20040;-73
2022/03/11 07:12:37;;;;;;;1.30;0.85;;;;;;;25.70;14.20;101820.22;5056142;28;20079;-73
2022/03/11 07:15:03;;;;;;;1.05;0.95;;;;;;;25.71;13.94;101827.38;5055292;28;20487;-74
2022/03/11 07:17:29;;;;;;;1.23;0.60;;;;;;;25.71;14.24;101830.09;5055633;28;20432;-73
2022/03/11 07:19:54;;;;;;;0.68;0.50;;;;;;;25.68;13.98;101824.06;5055795;28;20025;-74
2022/03/11 07:22:20;;;;;;;1.10;0.80;;;;;;;25.67;14.00;101827.06;5055418;28;20487;-74
2022/03/11 07:24:45;;;;;;;0.73;0.50;;;;;;;25.67;13.87;101822.41;5055420;28;20101;-75
2022/03/11 07:27:11;;;;;;;1.63;0.63;;;;;;;25.70;14.14;101817.50;5055317;28;20475;-74
2022/03/11 07:29:37;;;;;;;1.33;0.50;;;;;;;25.74;13.89;101814.00;5055070;28;20380;-74
2022/03/11 07:32:03;;;;;;;1.00;0.60;;;;;;;25.77;14.05;101812.69;5055079;28;20025;-74
2022/03/11 07:34:28;;;;;;;0.60;0.50;;;;;;;25.77;13.89;101812.69;5036947;28;20029;-74
2022/03/11 07:36:54;;;;;;;0.73;0.52;;;;;;;25.72;13.99;101807.97;5055585;28;20142;-78
2022/03/11 07:39:19;;;;;;;0.70;0.60;;;;;;;25.75;14.03;101809.34;5055162;28;20380;-74
2022/03/11 07:41:44;;;;;;;0.73;0.40;;;;;;;25.75;14.06;101809.34;5055540;28;20072;-74
2022/03/11 07:44:10;;;;;;;1.38;0.50;;;;;;;25.74;13.93;101813.19;5055126;28;20029;-74
2022/03/11 07:46:36;;;;;;;0.50;0.50;;;;;;;25.66;14.10;101811.69;5054778;28;20028;-74
2022/03/11 07:49:01;;;;;;;1.17;0.60;;;;;;;25.73;13.97;101814.25;5056296;28;20049;-74
2022/03/11 07:51:27;;;;;;;0.90;0.60;;;;;;;25.75;13.96;101818.41;5055977;28;20075;-74
2022/03/11 07:53:52;;;;;;;1.80;0.60;;;;;;;25.70;13.52;101821.06;5054318;28;20025;-74
2022/03/11 07:56:18;;;;;;;0.85;0.70;;;;;;;25.76;13.97;101813.75;5055665;28;20035;-73
2022/03/11 07:58:43;;;;;;;1.20;0.73;;;;;;;25.71;13.78;101816.41;5036863;28;20021;-73
2022/03/11 08:01:09;;;;;;;0.50;0.50;;;;;;;25.79;14.00;101814.06;5054389;28;20021;-74
2022/03/11 08:03:36;;;;;;;0.40;0.38;;;;;;;25.80;13.90;101817.63;5057407;28;20032;-73
2022/03/11 08:06:01;;;;;;;3.08;0.70;;;;;;;25.78;13.92;101806.09;5038285;28;20055;-73
2022/03/11 08:08:27;;;;;;;0.60;0.60;;;;;;;25.78;13.55;101809.66;5054267;28;20099;-73
2022/03/11 08:10:54;;;;;;;0.85;0.50;;;;;;;25.65;13.76;101791.72;5054818;28;20025;-73
2022/03/11 08:13:20;;;;;;;1.27;0.70;;;;;;;25.80;13.59;101799.31;5054986;28;20367;-73
2022/03/11 08:15:45;;;;;;;0.40;0.40;;;;;;;25.83;13.63;101803.41;5038007;28;20060;-75
2022/03/11 08:18:10;;;;;;;0.40;0.40;;;;;;;25.86;13.68;101805.66;5054532;28;20491;-72
2022/03/11 08:20:36;;;;;;;0.43;0.40;;;;;;;25.90;13.62;101803.22;5055034;28;20076;-71
2022/03/11 08:23:01;;;;;;;1.10;0.57;;;;;;;25.88;13.82;101811.69;5053711;28;20049;-71
2022/03/11 08:25:27;;;;;;;1.63;0.70;;;;;;;25.90;13.63;101805.97;5053655;28;20032;-71
2022/03/11 08:27:53;;;;;;;0.80;0.70;;;;;;;25.95;13.62;101808.78;5053874;28;20033;-72
2022/03/11 08:30:18;;;;;;;0.60;0.50;;;;;;;25.93;13.84;101802.72;5054231;28;20036;-72
2022/03/11 08:32:44;;;;;;;1.13;0.57;;;;;;;25.95;13.81;101803.31;5054157;28;20025;-71
2022/03/11 08:35:09;;;;;;;0.75;0.50;;;;;;;25.94;13.57;101799.75;5054007;28;20375;-69
2022/03/11 08:37:36;;;;;;;0.50;0.50;;;;;;;25.81;13.76;101786.44;5053837;28;20383;-72
2022/03/11 08:40:01;;;;;;;0.73;0.60;;;;;;;25.93;13.89;101802.72;5054051;28;20040;-71
2022/03/11 08:42:26;;;;;;;2.20;0.60;;;;;;;25.97;13.82;101795.66;5054371;28;20033;-72
2022/03/11 08:44:55;;;;;;;0.40;0.40;;;;;;;25.93;13.58;101795.31;5054467;28;20033;-71
2022/03/11 08:47:21;;;;;;;0.90;0.57;;;;;;;25.96;13.75;101797.59;5035796;28;20104;-72
2022/03/11 08:49:46;;;;;;;0.40;0.40;;;;;;;25.96;13.58;101794.03;5053855;28;20029;-68
2022/03/11 08:52:12;;;;;;;0.63;0.40;;;;;;;25.88;13.51;101787.06;5053294;28;20025;-68
2022/03/11 08:54:37;;;;;;;0.47;0.38;;;;;;;25.86;13.53;101787.31;5053205;28;20063;-68
2022/03/11 08:57:03;;;;;;;0.40;0.40;;;;;;;25.92;13.52;101795.56;5053451;28;20071;-68
2022/03/11 08:59:28;;;;;;;1.40;0.40;;;;;;;25.98;13.75;101795.41;5054017;28;20040;-69
2022/03/11 09:01:54;;;;;;;0.30;0.30;;;;;;;25.89;13.68;101794.19;5053015;28;20114;-70
2022/03/11 09:04:20;;;;;;;0.40;0.40;;;;;;;25.95;13.41;101795.91;5053154;28;20029;-68
2022/03/11 09:06:46;;;;;;;0.47;0.40;;;;;;;25.91;13.36;101797.50;5052787;28;20098;-68
2022/03/11 09:09:11;;;;;;;0.40;0.40;;;;;;;25.96;13.41;101785.81;5052812;28;20472;-68
2022/03/11 09:11:36;;;;;;;0.98;0.52;;;;;;;25.93;13.59;101794.50;5053218;28;20028;-69
2022/03/11 09:14:02;;;;;;;0.50;0.50;;;;;;;25.96;13.48;101794.84;5052623;28;20055;-69
2022/03/11 09:16:27;;;;;;;0.50;0.40;;;;;;;25.96;13.29;101797.59;5052666;28;20029;-69
2022/03/11 09:18:54;;;;;;;0.40;0.40;;;;;;;25.98;13.49;101806.38;5052464;28;20025;-69
2022/03/11 09:21:20;;;;;;;0.52;0.47;;;;;;;25.95;13.23;101806.88;5052615;28;20032;-69
2022/03/11 09:23:47;;;;;;;1.30;0.40;;;;;;;25.96;13.21;101814.03;5052621;28;20049;-71
2022/03/11 09:26:13;;;;;;;0.73;0.38;;;;;;;25.97;13.43;101815.66;5052798;28;20020;-69
2022/03/11 09:28:38;;;;;;;0.80;0.40;;;;;;;26.00;13.40;101815.16;5052789;28;20048;-69
2022/03/11 09:31:08;;;;;;;0.70;0.40;;;;;;;25.99;13.19;101812.66;5052847;28;20056;-69
2022/03/11 09:33:37;;;;;;;1.75;0.43;;;;;;;25.95;13.32;101806.88;5052974;28;20204;-69
2022/03/11 09:36:03;;;;;;;0.30;0.30;;;;;;;25.99;13.11;101802.56;5057349;28;20100;-71
2022/03/11 09:38:29;;;;;;;0.98;0.40;;;;;;;26.03;13.21;101809.16;5059752;28;20445;-69
2022/03/11 09:40:54;;;;;;;0.25;0.25;;;;;;;25.99;13.31;101807.19;5059796;28;20067;-69
2022/03/11 09:43:19;;;;;;;0.63;0.40;;;;;;;25.98;13.06;101811.84;5041060;28;20021;-68
2022/03/11 09:45:45;;;;;;;0.40;0.35;;;;;;;25.94;13.21;101788.81;5059403;28;20028;-67
2022/03/11 09:48:10;;;;;;;1.88;0.50;;;;;;;25.99;13.23;101794.34;5059329;28;20028;-69
2022/03/11 09:50:36;;;;;;;0.52;0.40;;;;;;;26.00;13.33;101804.19;5059305;28;20499;-69
2022/03/11 09:53:02;;;;;;;0.50;0.50;;;;;;;25.92;13.24;101790.91;5041277;28;20083;-70
2022/03/11 09:55:27;;;;;;;0.40;0.40;;;;;;;26.03;13.35;101800.94;5058670;28;20021;-69
2022/03/11 09:57:53;;;;;;;0.65;0.40;;;;;;;26.04;13.28;101793.53;5041175;28;20021;-69
2022/03/11 10:00:18;;;;;;;0.68;0.47;;;;;;;25.99;13.30;101793.50;5060322;28;20036;-70
2022/03/11 10:02:45;;;;;;;1.13;0.40;;;;;;;26.01;13.41;101803.13;5059962;28;20044;-68
2022/03/11 10:05:10;;;;;;;0.40;0.40;;;;;;;26.00;13.11;101793.25;5059587;28;20043;-69
2022/03/11 10:07:35;;;;;;;0.40;0.40;;;;;;;26.10;13.61;101797.19;5059872;28;20025;-68
2022/03/11 10:10:15;;;;;;;0.47;0.45;;;;;;;26.08;13.83;101800.19;5059646;28;20033;-69
2022/03/11 10:12:43;;;;;;;0.50;0.30;;;;;;;26.05;13.84;101807.00;5059881;28;20312;-71
2022/03/11 10:15:08;;;;;;;0.40;0.40;;;;;;;26.09;13.77;101806.47;5060354;28;20056;-71
2022/03/11 10:17:41;;;;;;;2.47;0.50;;;;;;;26.06;13.92;101802.34;5041843;28;20459;-69
2022/03/11 10:20:11;;;;;;;0.65;0.50;;;;;;;26.13;13.74;101796.66;5041879;28;20364;-70
2022/03/11 10:22:37;;;;;;;1.30;0.60;;;;;;;26.14;13.94;101803.78;5060194;28;20047;-70
2022/03/11 10:25:07;;;;;;;0.95;0.50;;;;;;;26.15;13.66;101799.97;5041523;28;20049;-70
2022/03/11 10:27:33;;;;;;;0.40;0.40;;;;;;;26.17;13.67;101798.63;5059361;28;20476;-71
2022/03/11 10:30:14;;;;;;;1.58;1.00;;;;;;;26.13;13.64;101788.44;5059484;28;20036;-70
2022/03/11 10:32:51;;;;;;;6.60;2.10;;;;;;;26.17;13.47;101789.59;5060548;28;20032;-70
2022/03/11 10:35:20;;;;;;;6.60;2.97;;;;;;;26.18;13.42;101789.34;5059709;28;20047;-71
2022/03/11 10:37:59;;;;;;;7.70;2.97;;;;;;;26.15;13.47;101778.06;5059749;28;20084;-70
2022/03/11 10:40:25;;;;;;;7.18;2.72;;;;;;;26.13;13.26;101774.72;5044642;28;20036;-75
2022/03/11 10:42:50;;;;;;;9.30;2.97;;;;;;;26.03;13.47;101759.03;5067813;28;20025;-75
2022/03/11 10:45:16;;;;;;;5.25;2.45;;;;;;;26.23;13.31;101788.53;5028366;28;20025;-75
2022/03/11 10:47:41;;;;;;;4.38;1.65;;;;;;;26.23;13.65;101789.38;5062541;28;20036;-74
2022/03/11 10:50:11;;;;;;;4.18;1.58;;;;;;;26.16;13.53;101779.69;5028098;28;20475;-74
2022/03/11 10:52:37;;;;;;;2.08;1.00;;;;;;;26.24;13.47;101792.94;5044846;28;20033;-74
2022/03/11 10:55:19;;;;;;;1.88;1.10;;;;;;;26.29;13.57;101795.72;5058642;28;20036;-74
2022/03/11 10:57:45;;;;;;;7.30;2.33;;;;;;;26.24;13.45;101782.81;5058570;28;20039;-73
2022/03/11 11:00:33;;;;;;;10.68;3.63;;;;;;;26.30;13.41;101780.97;5041239;28;20460;-75
2022/03/11 11:03:00;;;;;;;7.45;2.92;;;;;;;26.25;13.42;101778.16;5044906;28;20017;-75
2022/03/11 11:05:26;;;;;;;6.78;2.10;;;;;;;26.20;13.56;101767.16;5062355;28;20041;-75
2022/03/11 11:07:52;;;;;;;4.43;2.13;;;;;;;26.24;13.47;101765.53;5044442;28;20028;-74
2022/03/11 11:10:19;;;;;;;5.90;2.10;;;;;;;26.28;13.43;101777.63;5061505;28;20021;-74
2022/03/11 11:12:45;;;;;;;3.83;1.70;;;;;;;26.26;13.36;101771.59;5063868;28;20050;-74
2022/03/11 11:15:11;;;;;;;2.08;1.25;;;;;;;26.28;13.49;101774.88;5047128;28;20498;-73
2022/03/11 11:17:37;;;;;;;5.45;1.60;;;;;;;26.22;13.38;101767.72;5063146;28;20021;-74
2022/03/11 11:20:04;;;;;;;2.70;1.23;;;;;;;26.28;13.25;101772.16;5060045;28;20029;-76